sensor_id;sensor_type;location;lat;lon;timestamp;pressure;altitude;pressure_sealevel;temperature;humidity
16777;BME280;8505;49.456;8.164;2023-06-19T00:00:13;99193.03;;;22.87;49.65
16777;BME280;8505;49.456;8.164;2023-06-19T00:02:42;99177.63;;;22.87;49.96
16777;BME280;8505;49.456;8.164;2023-06-19T00:05:12;99178.97;;;22.85;49.92
16777;BME280;8505;49.456;8.164;2023-06-19T00:07:40;99166.81;;;22.77;50.56
16777;BME280;8505;49.456;8.164;2023-06-19T00:10:08;99167.59;;;22.78;50.57
16777;BME280;8505;49.456;8.164;2023-06-19T00:12:36;99168.09;;;22.70;50.50
16777;BME280;8505;49.456;8.164;2023-06-19T00:15:06;99166.72;;;22.67;50.47
16777;BME280;8505;49.456;8.164;2023-06-19T00:17:35;99169.97;;;22.69;49.92
16777;BME280;8505;49.456;8.164;2023-06-19T00:20:05;99166.97;;;22.66;50.39
16777;BME280;8505;49.456;8.164;2023-06-19T00:22:34;99159.44;;;22.68;50.48
16777;BME280;8505;49.456;8.164;2023-06-19T00:25:02;99159.69;;;22.66;50.87
16777;BME280;8505;49.456;8.164;2023-06-19T00:27:30;99157.19;;;22.49;51.71
16777;BME280;8505;49.456;8.164;2023-06-19T00:29:57;99159.63;;;22.46;51.63
16777;BME280;8505;49.456;8.164;2023-06-19T00:32:30;99159.03;;;22.34;52.05
16777;BME280;8505;49.456;8.164;2023-06-19T00:34:58;99157.13;;;22.34;52.21
16777;BME280;8505;49.456;8.164;2023-06-19T00:37:27;99149.31;;;22.38;51.90
16777;BME280;8505;49.456;8.164;2023-06-19T00:39:58;99164.94;;;22.31;52.19
16777;BME280;8505;49.456;8.164;2023-06-19T00:42:26;99176.50;;;22.21;52.41
16777;BME280;8505;49.456;8.164;2023-06-19T00:44:54;99176.50;;;22.26;52.05
16777;BME280;8505;49.456;8.164;2023-06-19T00:47:21;99176.28;;;22.33;52.11
16777;BME280;8505;49.456;8.164;2023-06-19T00:49:50;99173.28;;;22.29;52.12
16777;BME280;8505;49.456;8.164;2023-06-19T00:52:18;99180.88;;;22.32;51.97
16777;BME280;8505;49.456;8.164;2023-06-19T00:54:46;99176.28;;;22.33;51.95
16777;BME280;8505;49.456;8.164;2023-06-19T00:57:14;99176.53;;;22.31;52.19
16777;BME280;8505;49.456;8.164;2023-06-19T00:59:42;99172.22;;;22.35;51.73
16777;BME280;8505;49.456;8.164;2023-06-19T01:02:10;99183.34;;;22.39;51.94
16777;BME280;8505;49.456;8.164;2023-06-19T01:04:38;99187.34;;;22.36;52.15
16777;BME280;8505;49.456;8.164;2023-06-19T01:07:12;99192.53;;;22.43;51.80
16777;BME280;8505;49.456;8.164;2023-06-19T01:09:46;99194.16;;;22.44;51.60
16777;BME280;8505;49.456;8.164;2023-06-19T01:12:16;99199.34;;;22.60;50.68
16777;BME280;8505;49.456;8.164;2023-06-19T01:14:54;99197.03;;;22.74;49.81
16777;BME280;8505;49.456;8.164;2023-06-19T01:17:23;99200.16;;;23.28;48.80
16777;BME280;8505;49.456;8.164;2023-06-19T01:19:52;99199.13;;;23.45;49.06
16777;BME280;8505;49.456;8.164;2023-06-19T01:22:25;99200.78;;;23.56;49.52
16777;BME280;8505;49.456;8.164;2023-06-19T01:24:54;99211.59;;;23.61;49.28
16777;BME280;8505;49.456;8.164;2023-06-19T01:27:23;99211.59;;;23.56;49.92
16777;BME280;8505;49.456;8.164;2023-06-19T01:29:56;99210.78;;;23.50;50.33
16777;BME280;8505;49.456;8.164;2023-06-19T01:32:31;99220.75;;;23.45;51.07
16777;BME280;8505;49.456;8.164;2023-06-19T01:35:01;99229.91;;;23.38;51.05
16777;BME280;8505;49.456;8.164;2023-06-19T01:37:31;99233.44;;;23.39;51.29
16777;BME280;8505;49.456;8.164;2023-06-19T01:40:02;99235.03;;;23.35;51.47
16777;BME280;8505;49.456;8.164;2023-06-19T01:42:32;99222.84;;;23.27;51.74
16777;BME280;8505;49.456;8.164;2023-06-19T01:45:02;99226.63;;;23.21;52.02
16777;BME280;8505;49.456;8.164;2023-06-19T01:47:30;99224.47;;;23.23;52.03
16777;BME280;8505;49.456;8.164;2023-06-19T01:49:58;99220.69;;;23.24;52.12
16777;BME280;8505;49.456;8.164;2023-06-19T01:52:26;99222.31;;;23.25;52.26
16777;BME280;8505;49.456;8.164;2023-06-19T01:54:55;99214.75;;;23.27;52.03
16777;BME280;8505;49.456;8.164;2023-06-19T01:57:23;99211.50;;;23.25;52.18
16777;BME280;8505;49.456;8.164;2023-06-19T01:59:51;99214.22;;;23.20;52.02
16777;BME280;8505;49.456;8.164;2023-06-19T02:02:19;99199.34;;;23.18;52.05
16777;BME280;8505;49.456;8.164;2023-06-19T02:04:46;99206.38;;;23.29;52.04
16777;BME280;8505;49.456;8.164;2023-06-19T02:07:14;99207.69;;;23.16;52.26
16777;BME280;8505;49.456;8.164;2023-06-19T02:09:42;99216.88;;;23.15;52.30
16777;BME280;8505;49.456;8.164;2023-06-19T02:12:12;99217.97;;;23.19;52.27
16777;BME280;8505;49.456;8.164;2023-06-19T02:14:39;99231.97;;;23.01;52.81
16777;BME280;8505;49.456;8.164;2023-06-19T02:17:07;99231.72;;;23.08;52.68
16777;BME280;8505;49.456;8.164;2023-06-19T02:19:35;99228.72;;;23.04;52.99
16777;BME280;8505;49.456;8.164;2023-06-19T02:22:03;99223.81;;;22.91;53.04
16777;BME280;8505;49.456;8.164;2023-06-19T02:24:31;99229.75;;;22.88;53.22
16777;BME280;8505;49.456;8.164;2023-06-19T02:26:59;99224.13;;;22.94;53.32
16777;BME280;8505;49.456;8.164;2023-06-19T02:29:29;99223.06;;;23.01;52.68
16777;BME280;8505;49.456;8.164;2023-06-19T02:32:00;99223.31;;;22.99;52.94
16777;BME280;8505;49.456;8.164;2023-06-19T02:34:28;99227.56;;;22.85;53.67
16777;BME280;8505;49.456;8.164;2023-06-19T02:36:56;99229.19;;;22.81;53.67
16777;BME280;8505;49.456;8.164;2023-06-19T02:39:23;99223.78;;;22.76;53.79
16777;BME280;8505;49.456;8.164;2023-06-19T02:41:51;99230.72;;;22.72;53.63
16777;BME280;8505;49.456;8.164;2023-06-19T02:44:19;99228.34;;;22.75;52.99
16777;BME280;8505;49.456;8.164;2023-06-19T02:46:48;99226.22;;;22.77;53.07
16777;BME280;8505;49.456;8.164;2023-06-19T02:49:15;99240.00;;;22.81;52.63
16777;BME280;8505;49.456;8.164;2023-06-19T02:51:43;99250.81;;;22.86;52.97
16777;BME280;8505;49.456;8.164;2023-06-19T02:54:11;99272.91;;;22.78;52.81
16777;BME280;8505;49.456;8.164;2023-06-19T02:56:39;99274.53;;;22.79;52.67
16777;BME280;8505;49.456;8.164;2023-06-19T02:59:06;99274.84;;;22.87;52.46
16777;BME280;8505;49.456;8.164;2023-06-19T03:01:34;99285.44;;;22.99;51.64
16777;BME280;8505;49.456;8.164;2023-06-19T03:04:03;99278.16;;;23.05;51.93
16777;BME280;8505;49.456;8.164;2023-06-19T03:06:31;99280.94;;;23.20;51.39
16777;BME280;8505;49.456;8.164;2023-06-19T03:08:59;99283.09;;;23.23;51.01
16777;BME280;8505;49.456;8.164;2023-06-19T03:11:27;99292.25;;;23.12;51.30
16777;BME280;8505;49.456;8.164;2023-06-19T03:13:56;99291.47;;;23.21;51.13
16777;BME280;8505;49.456;8.164;2023-06-19T03:16:24;99284.72;;;23.19;51.34
16777;BME280;8505;49.456;8.164;2023-06-19T03:18:52;99292.72;;;22.98;51.89
16777;BME280;8505;49.456;8.164;2023-06-19T03:21:21;99307.53;;;22.91;52.01
16777;BME280;8505;49.456;8.164;2023-06-19T03:23:49;99305.97;;;23.00;52.30
16777;BME280;8505;49.456;8.164;2023-06-19T03:26:18;99315.38;;;22.87;52.96
16777;BME280;8505;49.456;8.164;2023-06-19T03:28:46;99323.16;;;22.84;52.93
16777;BME280;8505;49.456;8.164;2023-06-19T03:31:15;99313.56;;;22.66;53.55
16777;BME280;8505;49.456;8.164;2023-06-19T03:33:42;99315.78;;;22.69;53.77
16777;BME280;8505;49.456;8.164;2023-06-19T03:36:10;99312.44;;;22.57;54.25
16777;BME280;8505;49.456;8.164;2023-06-19T03:38:40;99318.88;;;22.51;54.29
16777;BME280;8505;49.456;8.164;2023-06-19T03:41:07;99315.41;;;22.55;54.81
16777;BME280;8505;49.456;8.164;2023-06-19T03:43:35;99319.06;;;22.39;55.79
16777;BME280;8505;49.456;8.164;2023-06-19T03:46:03;99317.47;;;22.43;55.94
16777;BME280;8505;49.456;8.164;2023-06-19T03:48:31;99326.88;;;22.41;56.19
16777;BME280;8505;49.456;8.164;2023-06-19T03:50:59;99317.19;;;22.40;56.44
16777;BME280;8505;49.456;8.164;2023-06-19T03:53:27;99324.97;;;22.36;56.59
16777;BME280;8505;49.456;8.164;2023-06-19T03:55:56;99325.81;;;22.42;56.82
16777;BME280;8505;49.456;8.164;2023-06-19T03:58:24;99318.50;;;22.37;57.19
16777;BME280;8505;49.456;8.164;2023-06-19T04:00:51;99315.78;;;22.32;57.81
16777;BME280;8505;49.456;8.164;2023-06-19T04:03:19;99322.25;;;22.31;57.85
16777;BME280;8505;49.456;8.164;2023-06-19T04:05:47;99315.78;;;22.32;58.16
16777;BME280;8505;49.456;8.164;2023-06-19T04:08:15;99329.53;;;22.31;58.46
16777;BME280;8505;49.456;8.164;2023-06-19T04:10:43;99323.34;;;22.35;58.44
16777;BME280;8505;49.456;8.164;2023-06-19T04:13:12;99324.41;;;22.34;58.55
16777;BME280;8505;49.456;8.164;2023-06-19T04:15:40;99318.22;;;22.34;58.83
16777;BME280;8505;49.456;8.164;2023-06-19T04:18:12;99322.75;;;22.28;59.30
16777;BME280;8505;49.456;8.164;2023-06-19T04:20:40;99320.97;;;22.39;59.15
16777;BME280;8505;49.456;8.164;2023-06-19T04:23:08;99330.41;;;22.41;59.17
16777;BME280;8505;49.456;8.164;2023-06-19T04:25:37;99315.03;;;22.42;59.38
16777;BME280;8505;49.456;8.164;2023-06-19T04:28:04;99324.81;;;22.53;58.83
16777;BME280;8505;49.456;8.164;2023-06-19T04:30:33;99320.81;;;22.55;59.05
16777;BME280;8505;49.456;8.164;2023-06-19T04:33:01;99318.09;;;22.55;59.06
16777;BME280;8505;49.456;8.164;2023-06-19T04:35:30;99317.53;;;22.53;59.05
16777;BME280;8505;49.456;8.164;2023-06-19T04:37:58;99312.69;;;22.55;58.96
16777;BME280;8505;49.456;8.164;2023-06-19T04:40:27;99310.00;;;22.55;58.81
16777;BME280;8505;49.456;8.164;2023-06-19T04:42:56;99314.59;;;22.55;58.75
16777;BME280;8505;49.456;8.164;2023-06-19T04:45:24;99307.50;;;22.44;59.40
16777;BME280;8505;49.456;8.164;2023-06-19T04:47:53;99306.19;;;22.46;59.36
16777;BME280;8505;49.456;8.164;2023-06-19T04:50:21;99311.78;;;22.40;59.37
16777;BME280;8505;49.456;8.164;2023-06-19T04:52:49;99317.19;;;22.40;59.97
16777;BME280;8505;49.456;8.164;2023-06-19T04:55:18;99312.84;;;22.34;60.06
16777;BME280;8505;49.456;8.164;2023-06-19T04:57:46;99319.91;;;22.40;60.18
16777;BME280;8505;49.456;8.164;2023-06-19T05:00:15;99310.91;;;22.34;60.76
16777;BME280;8505;49.456;8.164;2023-06-19T05:02:46;99314.44;;;22.35;60.92
16777;BME280;8505;49.456;8.164;2023-06-19T05:05:15;99315.19;;;22.25;61.85
16777;BME280;8505;49.456;8.164;2023-06-19T05:07:45;99326.78;;;22.26;61.86
16777;BME280;8505;49.456;8.164;2023-06-19T05:10:13;99336.31;;;22.33;61.94
16777;BME280;8505;49.456;8.164;2023-06-19T05:12:41;99330.06;;;22.28;62.44
16777;BME280;8505;49.456;8.164;2023-06-19T05:15:09;99333.53;;;22.28;62.42
16777;BME280;8505;49.456;8.164;2023-06-19T05:17:37;99333.59;;;22.33;62.63
16777;BME280;8505;49.456;8.164;2023-06-19T05:20:06;99342.53;;;22.39;62.45
16777;BME280;8505;49.456;8.164;2023-06-19T05:22:36;99334.34;;;22.29;63.04
16777;BME280;8505;49.456;8.164;2023-06-19T05:25:05;99336.03;;;22.35;62.76
16777;BME280;8505;49.456;8.164;2023-06-19T05:27:33;99332.47;;;22.29;63.28
16777;BME280;8505;49.456;8.164;2023-06-19T05:30:00;99343.66;;;22.43;63.08
16777;BME280;8505;49.456;8.164;2023-06-19T05:32:28;99343.81;;;22.63;62.33
16777;BME280;8505;49.456;8.164;2023-06-19T05:34:56;99348.47;;;22.73;62.40
16777;BME280;8505;49.456;8.164;2023-06-19T05:37:24;99346.09;;;22.76;62.11
16777;BME280;8505;49.456;8.164;2023-06-19T05:39:55;99352.34;;;22.50;63.32
16777;BME280;8505;49.456;8.164;2023-06-19T05:42:23;99357.50;;;22.51;63.17
16777;BME280;8505;49.456;8.164;2023-06-19T05:44:51;99352.56;;;22.75;62.70
16777;BME280;8505;49.456;8.164;2023-06-19T05:47:19;99352.19;;;22.67;62.90
16777;BME280;8505;49.456;8.164;2023-06-19T05:49:47;99352.63;;;22.53;63.33
16777;BME280;8505;49.456;8.164;2023-06-19T05:52:15;99361.97;;;22.41;63.93
16777;BME280;8505;49.456;8.164;2023-06-19T05:54:42;99348.44;;;22.36;64.18
16777;BME280;8505;49.456;8.164;2023-06-19T05:57:12;99366.94;;;22.22;64.56
16777;BME280;8505;49.456;8.164;2023-06-19T05:59:41;99373.38;;;22.48;63.75
16777;BME280;8505;49.456;8.164;2023-06-19T06:02:09;99367.69;;;22.44;64.21
16777;BME280;8505;49.456;8.164;2023-06-19T06:04:37;99369.34;;;22.50;64.02
16777;BME280;8505;49.456;8.164;2023-06-19T06:07:05;99372.34;;;22.86;62.89
16777;BME280;8505;49.456;8.164;2023-06-19T06:09:33;99370.41;;;22.49;64.05
16777;BME280;8505;49.456;8.164;2023-06-19T06:12:00;99374.44;;;22.47;64.37
16777;BME280;8505;49.456;8.164;2023-06-19T06:14:30;99378.16;;;22.41;64.43
16777;BME280;8505;49.456;8.164;2023-06-19T06:16:57;99373.22;;;22.28;64.95
16777;BME280;8505;49.456;8.164;2023-06-19T06:19:26;99374.00;;;22.28;65.05
16777;BME280;8505;49.456;8.164;2023-06-19T06:21:54;99371.75;;;22.79;63.61
16777;BME280;8505;49.456;8.164;2023-06-19T06:24:22;99375.78;;;23.18;62.42
16777;BME280;8505;49.456;8.164;2023-06-19T06:26:49;99383.19;;;23.43;61.29
16777;BME280;8505;49.456;8.164;2023-06-19T06:29:18;99385.50;;;23.19;61.90
16777;BME280;8505;49.456;8.164;2023-06-19T06:31:48;99386.78;;;23.59;61.01
16777;BME280;8505;49.456;8.164;2023-06-19T06:34:15;99396.06;;;23.83;59.96
16777;BME280;8505;49.456;8.164;2023-06-19T06:36:43;99405.31;;;24.07;59.45
16777;BME280;8505;49.456;8.164;2023-06-19T06:39:31;99414.63;;;24.37;58.86
16777;BME280;8505;49.456;8.164;2023-06-19T06:41:58;99425.72;;;24.61;57.65
16777;BME280;8505;49.456;8.164;2023-06-19T06:44:26;99427.50;;;23.99;59.41
16777;BME280;8505;49.456;8.164;2023-06-19T06:46:55;99432.75;;;24.31;58.34
16777;BME280;8505;49.456;8.164;2023-06-19T06:49:23;99430.59;;;24.69;56.93
16777;BME280;8505;49.456;8.164;2023-06-19T06:51:51;99435.75;;;24.65;57.55
16777;BME280;8505;49.456;8.164;2023-06-19T06:54:22;99459.03;;;24.76;57.01
16777;BME280;8505;49.456;8.164;2023-06-19T06:56:51;99449.53;;;24.53;57.47
16777;BME280;8505;49.456;8.164;2023-06-19T06:59:23;99459.56;;;24.63;57.33
16777;BME280;8505;49.456;8.164;2023-06-19T07:01:51;99461.75;;;24.86;56.75
16777;BME280;8505;49.456;8.164;2023-06-19T07:04:20;99462.81;;;24.75;57.17
16777;BME280;8505;49.456;8.164;2023-06-19T07:06:48;99473.13;;;25.19;55.60
16777;BME280;8505;49.456;8.164;2023-06-19T07:09:16;99465.28;;;24.62;57.51
16777;BME280;8505;49.456;8.164;2023-06-19T07:11:43;99469.88;;;25.17;56.25
16777;BME280;8505;49.456;8.164;2023-06-19T07:14:11;99457.31;;;25.66;54.77
16777;BME280;8505;49.456;8.164;2023-06-19T07:16:39;99457.56;;;25.70;54.28
16777;BME280;8505;49.456;8.164;2023-06-19T07:19:07;99460.41;;;26.04;53.23
16777;BME280;8505;49.456;8.164;2023-06-19T07:21:36;99468.34;;;25.90;53.86
16777;BME280;8505;49.456;8.164;2023-06-19T07:24:05;99473.00;;;25.80;54.09
16777;BME280;8505;49.456;8.164;2023-06-19T07:26:32;99482.25;;;25.68;54.28
16777;BME280;8505;49.456;8.164;2023-06-19T07:29:00;99487.63;;;25.84;53.68
16777;BME280;8505;49.456;8.164;2023-06-19T07:31:28;99482.75;;;25.81;53.67
16777;BME280;8505;49.456;8.164;2023-06-19T07:33:56;99494.22;;;25.57;54.25
16777;BME280;8505;49.456;8.164;2023-06-19T07:36:24;99487.22;;;25.16;56.03
16777;BME280;8505;49.456;8.164;2023-06-19T07:38:53;99502.88;;;25.64;54.99
16777;BME280;8505;49.456;8.164;2023-06-19T07:41:20;99495.41;;;26.10;52.84
16777;BME280;8505;49.456;8.164;2023-06-19T07:43:48;99521.94;;;25.29;55.06
16777;BME280;8505;49.456;8.164;2023-06-19T07:46:16;99520.25;;;25.43;55.66
16777;BME280;8505;49.456;8.164;2023-06-19T07:48:44;99512.69;;;25.35;55.12
16777;BME280;8505;49.456;8.164;2023-06-19T07:51:12;99512.16;;;25.33;55.67
16777;BME280;8505;49.456;8.164;2023-06-19T07:53:39;99512.94;;;24.73;56.84
16777;BME280;8505;49.456;8.164;2023-06-19T07:56:11;99512.16;;;25.03;56.12
16777;BME280;8505;49.456;8.164;2023-06-19T07:58:39;99512.16;;;25.08;56.07
16777;BME280;8505;49.456;8.164;2023-06-19T08:01:06;99514.34;;;24.90;56.54
16777;BME280;8505;49.456;8.164;2023-06-19T08:03:34;99515.91;;;25.72;54.49
16777;BME280;8505;49.456;8.164;2023-06-19T08:06:02;99519.88;;;25.95;53.75
16777;BME280;8505;49.456;8.164;2023-06-19T08:08:30;99526.41;;;25.94;53.30
16777;BME280;8505;49.456;8.164;2023-06-19T08:10:58;99530.78;;;25.85;53.92
16777;BME280;8505;49.456;8.164;2023-06-19T08:13:27;99524.34;;;25.41;54.63
16777;BME280;8505;49.456;8.164;2023-06-19T08:15:55;99527.13;;;26.15;52.97
16777;BME280;8505;49.456;8.164;2023-06-19T08:18:22;99535.56;;;26.08;52.40
16777;BME280;8505;49.456;8.164;2023-06-19T08:20:50;99529.00;;;26.25;51.90
16777;BME280;8505;49.456;8.164;2023-06-19T08:23:18;99527.59;;;26.37;52.27
16777;BME280;8505;49.456;8.164;2023-06-19T08:25:46;99521.06;;;26.82;51.19
16777;BME280;8505;49.456;8.164;2023-06-19T08:28:14;99515.66;;;26.77;50.41
16777;BME280;8505;49.456;8.164;2023-06-19T08:30:44;99520.34;;;27.34;49.79
16777;BME280;8505;49.456;8.164;2023-06-19T08:33:12;99532.63;;;27.03;50.14
16777;BME280;8505;49.456;8.164;2023-06-19T08:35:40;99536.75;;;25.92;52.80
16777;BME280;8505;49.456;8.164;2023-06-19T08:38:08;99542.47;;;25.55;53.86
16777;BME280;8505;49.456;8.164;2023-06-19T08:40:35;99526.75;;;25.52;54.38
16777;BME280;8505;49.456;8.164;2023-06-19T08:43:03;99533.78;;;25.78;53.37
16777;BME280;8505;49.456;8.164;2023-06-19T08:45:31;99523.53;;;26.30;52.29
16777;BME280;8505;49.456;8.164;2023-06-19T08:48:01;99527.91;;;26.75;51.13
16777;BME280;8505;49.456;8.164;2023-06-19T08:50:30;99530.13;;;27.35;50.10
16777;BME280;8505;49.456;8.164;2023-06-19T08:52:58;99529.38;;;27.01;49.34
16777;BME280;8505;49.456;8.164;2023-06-19T08:55:25;99534.81;;;26.57;50.94
16777;BME280;8505;49.456;8.164;2023-06-19T08:57:53;99537.28;;;26.53;50.69
16777;BME280;8505;49.456;8.164;2023-06-19T09:00:25;99537.00;;;26.55;51.30
16777;BME280;8505;49.456;8.164;2023-06-19T09:03:01;99534.84;;;26.52;51.28
16777;BME280;8505;49.456;8.164;2023-06-19T09:05:40;99544.13;;;26.46;51.20
16777;BME280;8505;49.456;8.164;2023-06-19T09:08:13;99525.09;;;26.46;50.68
16777;BME280;8505;49.456;8.164;2023-06-19T09:10:42;99529.97;;;26.49;50.86
16777;BME280;8505;49.456;8.164;2023-06-19T09:13:10;99532.69;;;27.27;48.76
16777;BME280;8505;49.456;8.164;2023-06-19T09:15:38;99535.06;;;27.33;49.12
16777;BME280;8505;49.456;8.164;2023-06-19T09:18:09;99531.88;;;27.55;47.81
16777;BME280;8505;49.456;8.164;2023-06-19T09:20:38;99530.03;;;27.98;46.82
16777;BME280;8505;49.456;8.164;2023-06-19T09:23:08;99533.50;;;28.04;46.57
16777;BME280;8505;49.456;8.164;2023-06-19T09:25:44;99535.19;;;28.00;46.81
16777;BME280;8505;49.456;8.164;2023-06-19T09:28:17;99528.22;;;28.36;45.80
16777;BME280;8505;49.456;8.164;2023-06-19T09:30:53;99532.47;;;27.52;47.94
16777;BME280;8505;49.456;8.164;2023-06-19T09:33:25;99531.91;;;27.79;47.68
16777;BME280;8505;49.456;8.164;2023-06-19T09:35:54;99534.38;;;27.52;47.77
16777;BME280;8505;49.456;8.164;2023-06-19T09:38:25;99535.78;;;27.97;46.84
16777;BME280;8505;49.456;8.164;2023-06-19T09:40:53;99529.75;;;28.24;46.70
16777;BME280;8505;49.456;8.164;2023-06-19T09:43:24;99529.28;;;27.69;47.08
16777;BME280;8505;49.456;8.164;2023-06-19T09:45:56;99521.31;;;27.49;47.40
16777;BME280;8505;49.456;8.164;2023-06-19T09:48:28;99526.50;;;27.74;46.77
16777;BME280;8505;49.456;8.164;2023-06-19T09:51:02;99523.88;;;28.11;45.92
16777;BME280;8505;49.456;8.164;2023-06-19T09:53:30;99516.69;;;28.02;46.03
16777;BME280;8505;49.456;8.164;2023-06-19T09:55:58;99521.34;;;27.72;46.74
16777;BME280;8505;49.456;8.164;2023-06-19T09:58:26;99516.88;;;28.48;44.90
16777;BME280;8505;49.456;8.164;2023-06-19T10:00:56;99524.06;;;27.96;45.83
16777;BME280;8505;49.456;8.164;2023-06-19T10:03:31;99521.00;;;28.03;45.89
16777;BME280;8505;49.456;8.164;2023-06-19T10:06:00;99513.41;;;28.24;44.74
16777;BME280;8505;49.456;8.164;2023-06-19T10:08:30;99510.22;;;29.43;43.44
16777;BME280;8505;49.456;8.164;2023-06-19T10:10:58;99504.41;;;30.04;40.80
16777;BME280;8505;49.456;8.164;2023-06-19T10:13:33;99502.75;;;29.75;41.55
16777;BME280;8505;49.456;8.164;2023-06-19T10:16:01;99507.75;;;30.50;40.83
16777;BME280;8505;49.456;8.164;2023-06-19T10:18:31;99498.72;;;29.87;41.63
16777;BME280;8505;49.456;8.164;2023-06-19T10:20:59;99492.06;;;28.68;43.47
16777;BME280;8505;49.456;8.164;2023-06-19T10:23:28;99487.38;;;29.52;41.66
16777;BME280;8505;49.456;8.164;2023-06-19T10:25:58;99501.97;;;30.02;41.24
16777;BME280;8505;49.456;8.164;2023-06-19T10:28:30;99489.63;;;30.05;40.61
16777;BME280;8505;49.456;8.164;2023-06-19T10:31:00;99485.19;;;29.95;41.33
16777;BME280;8505;49.456;8.164;2023-06-19T10:33:31;99476.97;;;30.59;39.94
16777;BME280;8505;49.456;8.164;2023-06-19T10:36:00;99477.38;;;30.52;40.76
16777;BME280;8505;49.456;8.164;2023-06-19T10:38:28;99478.38;;;30.06;40.42
16777;BME280;8505;49.456;8.164;2023-06-19T10:40:56;99488.63;;;29.73;41.37
16777;BME280;8505;49.456;8.164;2023-06-19T10:43:24;99474.84;;;30.55;39.94
16777;BME280;8505;49.456;8.164;2023-06-19T10:45:57;99478.25;;;30.25;40.16
16777;BME280;8505;49.456;8.164;2023-06-19T10:48:25;99482.81;;;30.30;39.94
16777;BME280;8505;49.456;8.164;2023-06-19T10:50:56;99480.56;;;30.32;40.04
16777;BME280;8505;49.456;8.164;2023-06-19T10:53:25;99472.72;;;30.03;40.05
16777;BME280;8505;49.456;8.164;2023-06-19T10:55:56;99474.34;;;30.53;38.94
16777;BME280;8505;49.456;8.164;2023-06-19T10:58:25;99460.38;;;30.55;39.12
16777;BME280;8505;49.456;8.164;2023-06-19T11:00:53;99460.56;;;30.45;40.22
16777;BME280;8505;49.456;8.164;2023-06-19T11:03:21;99458.13;;;30.43;39.23
16777;BME280;8505;49.456;8.164;2023-06-19T11:05:49;99453.16;;;30.59;37.88
16777;BME280;8505;49.456;8.164;2023-06-19T11:08:19;99451.50;;;31.25;37.02
16777;BME280;8505;49.456;8.164;2023-06-19T11:10:48;99455.47;;;31.50;36.41
16777;BME280;8505;49.456;8.164;2023-06-19T11:13:17;99444.94;;;31.65;36.58
16777;BME280;8505;49.456;8.164;2023-06-19T11:15:46;99439.72;;;31.55;35.90
16777;BME280;8505;49.456;8.164;2023-06-19T11:18:17;99435.25;;;30.98;37.56
16777;BME280;8505;49.456;8.164;2023-06-19T11:20:46;99438.03;;;31.06;37.00
16777;BME280;8505;49.456;8.164;2023-06-19T11:23:14;99445.06;;;30.76;37.68
16777;BME280;8505;49.456;8.164;2023-06-19T11:25:44;99437.03;;;30.49;38.33
16777;BME280;8505;49.456;8.164;2023-06-19T11:28:12;99431.44;;;30.54;37.36
16777;BME280;8505;49.456;8.164;2023-06-19T11:30:41;99428.78;;;30.13;38.26
16777;BME280;8505;49.456;8.164;2023-06-19T11:33:17;99436.38;;;30.74;37.38
16777;BME280;8505;49.456;8.164;2023-06-19T11:35:49;99434.84;;;30.46;38.04
16777;BME280;8505;49.456;8.164;2023-06-19T11:38:18;99437.16;;;31.19;37.07
16777;BME280;8505;49.456;8.164;2023-06-19T11:40:48;99430.41;;;31.25;36.06
16777;BME280;8505;49.456;8.164;2023-06-19T11:43:26;99424.59;;;31.18;36.63
16777;BME280;8505;49.456;8.164;2023-06-19T11:46:01;99418.28;;;31.09;36.63
16777;BME280;8505;49.456;8.164;2023-06-19T11:48:29;99425.97;;;30.18;38.42
16777;BME280;8505;49.456;8.164;2023-06-19T11:50:57;99432.28;;;29.91;38.82
16777;BME280;8505;49.456;8.164;2023-06-19T11:53:26;99440.25;;;30.01;39.10
16777;BME280;8505;49.456;8.164;2023-06-19T11:55:55;99440.47;;;29.91;39.44
16777;BME280;8505;49.456;8.164;2023-06-19T11:58:23;99434.41;;;29.81;40.08
16777;BME280;8505;49.456;8.164;2023-06-19T12:00:51;99427.00;;;30.31;38.85
16777;BME280;8505;49.456;8.164;2023-06-19T12:03:19;99427.50;;;29.69;39.64
16777;BME280;8505;49.456;8.164;2023-06-19T12:05:47;99425.69;;;29.65;39.70
16777;BME280;8505;49.456;8.164;2023-06-19T12:08:15;99421.34;;;30.05;39.30
16777;BME280;8505;49.456;8.164;2023-06-19T12:10:43;99420.00;;;30.02;39.29
16777;BME280;8505;49.456;8.164;2023-06-19T12:13:12;99418.28;;;30.87;37.40
16777;BME280;8505;49.456;8.164;2023-06-19T12:15:40;99414.97;;;31.29;36.72
16777;BME280;8505;49.456;8.164;2023-06-19T12:18:08;99417.00;;;31.55;36.60
16777;BME280;8505;49.456;8.164;2023-06-19T12:20:38;99412.22;;;31.69;35.85
16777;BME280;8505;49.456;8.164;2023-06-19T12:23:06;99415.53;;;31.09;37.68
16777;BME280;8505;49.456;8.164;2023-06-19T12:25:34;99412.47;;;30.80;38.13
16777;BME280;8505;49.456;8.164;2023-06-19T12:28:02;99404.56;;;30.78;38.50
16777;BME280;8505;49.456;8.164;2023-06-19T12:30:35;99402.72;;;31.27;37.38
16777;BME280;8505;49.456;8.164;2023-06-19T12:33:03;99407.81;;;31.11;37.50
16777;BME280;8505;49.456;8.164;2023-06-19T12:35:31;99402.09;;;31.30;37.16
16777;BME280;8505;49.456;8.164;2023-06-19T12:37:59;99402.38;;;31.20;37.64
16777;BME280;8505;49.456;8.164;2023-06-19T12:40:27;99401.81;;;31.40;36.93
16777;BME280;8505;49.456;8.164;2023-06-19T12:42:55;99399.69;;;31.28;37.54
16777;BME280;8505;49.456;8.164;2023-06-19T12:45:22;99393.25;;;31.98;35.68
16777;BME280;8505;49.456;8.164;2023-06-19T12:47:52;99391.88;;;32.27;35.78
16777;BME280;8505;49.456;8.164;2023-06-19T12:50:21;99394.53;;;31.75;36.49
16777;BME280;8505;49.456;8.164;2023-06-19T12:52:50;99389.72;;;31.89;35.29
16777;BME280;8505;49.456;8.164;2023-06-19T12:55:18;99397.66;;;32.25;34.83
16777;BME280;8505;49.456;8.164;2023-06-19T12:57:46;99399.56;;;32.76;34.00
16777;BME280;8505;49.456;8.164;2023-06-19T13:00:14;99395.50;;;31.31;36.32
16777;BME280;8505;49.456;8.164;2023-06-19T13:02:42;99395.81;;;31.29;36.54
16777;BME280;8505;49.456;8.164;2023-06-19T13:05:14;99396.00;;;31.90;34.97
16777;BME280;8505;49.456;8.164;2023-06-19T13:07:42;99399.69;;;31.85;35.43
16777;BME280;8505;49.456;8.164;2023-06-19T13:10:10;99397.81;;;31.46;36.21
16777;BME280;8505;49.456;8.164;2023-06-19T13:12:37;99392.41;;;30.93;37.80
16777;BME280;8505;49.456;8.164;2023-06-19T13:15:06;99395.22;;;31.41;37.16
16777;BME280;8505;49.456;8.164;2023-06-19T13:17:34;99388.88;;;31.80;35.98